Oriibu — JD2579 — position and weather

sailwx.info

Track history (hours):
 
Tides and Currents Weather Stations Pressure Air Temp Water Temp Dewpoint Dewpoint Depression Visibility Wind Speed Wind Dir Waves Ship Positions

Oriibu

Last reported at 2015-Mar-30 10:33 UTC. Time now 2015-Mar-30 10:42 UTC.
Position N 35°02' E 139°36'.

Length 75 m; draft 4.2 m.

MMSI: 431000426.

Date/timePositionNaut miles runAvg speedWind from/ knotsBaromVisibWave heightAir tempDewpointWater temp
2015-Mar-30 10:33N 35°02' E 139°36'1212.2
2015-Mar-30 09:33N 35°12' E 139°45'1212.1
2015-Mar-30 08:33N 35°23' E 139°43'1312.5
2015-Mar-30 07:33N 35°32' E 139°53'9 8.8
2015-Mar-30 06:31N 35°41' E 139°58'0 0.0
2015-Mar-29 23:11N 35°41' E 139°58'1 1.1
2015-Mar-29 22:33N 35°40' E 139°59'4 4.3
2015-Mar-29 21:32N 35°36' E 139°58'0 0.0
2015-Mar-29 19:26N 35°36' E 139°58'0 0.0
2015-Mar-29 18:23N 35°36' E 139°58'0 0.0
2015-Mar-29 17:29N 35°36' E 139°58'0 0.0
2015-Mar-29 16:33N 35°36' E 139°58'7 6.6
2015-Mar-29 15:33N 35°30' E 139°54'1211.9
2015-Mar-29 14:33N 35°21' E 139°45'1111.5
2015-Mar-29 13:33N 35°10' E 139°46'1211.6
2015-Mar-29 12:33N 35°01' E 139°37'233 4.8
2015-Mar-27 12:16N 34°36' E 134°54'710.2
2015-Mar-27 11:33N 34°36' E 135°03'1212.0
2015-Mar-27 10:33N 34°33' E 135°18'6 2.7
2015-Mar-27 08:31N 34°31' E 135°24'0 0.0
2015-Mar-27 07:31N 34°31' E 135°24'0 0.0
2015-Mar-27 06:31N 34°31' E 135°24'0 0.0
2015-Mar-26 21:10N 34°31' E 135°24'0 0.0
2015-Mar-26 17:28N 34°31' E 135°24'0 0.0
2015-Mar-26 16:22N 34°31' E 135°24'0 0.0
2015-Mar-26 15:33N 34°31' E 135°24'7 7.2
2015-Mar-26 14:33N 34°29' E 135°15'2610.9
2015-Mar-26 12:13N 34°07' E 135°00'229 4.6
2015-Mar-24 10:18N 35°02' E 139°30'811.4
2015-Mar-24 09:33N 35°06' E 139°40'1111.1
2015-Mar-24 08:32N 35°16' E 139°46'1111.3
2015-Mar-24 07:33N 35°27' E 139°43'1 1.5
2015-Mar-24 06:32N 35°28' E 139°42'0 0.0
2015-Mar-24 05:29N 35°28' E 139°42'0 0.0
2015-Mar-24 04:32N 35°28' E 139°42'0 0.0
2015-Mar-24 03:29N 35°28' E 139°42'0 0.0
2015-Mar-24 02:23N 35°28' E 139°42'0 0.0
2015-Mar-24 01:23N 35°28' E 139°42'0 0.1
2015-Mar-24 00:32N 35°28' E 139°42'0 0.0
2015-Mar-23 23:32N 35°28' E 139°42'2 2.0
2015-Mar-23 22:32N 35°26' E 139°43'0 0.0
2015-Mar-23 21:29N 35°26' E 139°43'0 0.0
2015-Mar-23 20:32N 35°26' E 139°43'0 0.0
2015-Mar-23 19:32N 35°26' E 139°43'4 4.4
2015-Mar-23 18:33N 35°22' E 139°43'1111.3
2015-Mar-23 17:33N 35°11' E 139°47'1110.7
2015-Mar-23 16:33N 35°03' E 139°39'  
Track history (hours):
 
Tides and Currents Weather Stations Pressure Air Temp Water Temp Dewpoint Dewpoint Depression Visibility Wind Speed Wind Dir Waves Ship Positions

Oriibu

Last reported at 2015-Mar-30 10:33 UTC. Time now 2015-Mar-30 10:42 UTC.
Position N 35°02' E 139°36'.

Length 75 m; draft 4.2 m.

MMSI: 431000426.

Date/timePositionNaut miles runAvg speedWind from/ knotsBaromVisibWave heightAir tempDewpointWater temp
2015-Mar-30 10:33N 35°02' E 139°36'1212.2
2015-Mar-30 09:33N 35°12' E 139°45'1212.1
2015-Mar-30 08:33N 35°23' E 139°43'1312.5
2015-Mar-30 07:33N 35°32' E 139°53'9 8.8
2015-Mar-30 06:31N 35°41' E 139°58'0 0.0
2015-Mar-29 23:11N 35°41' E 139°58'1 1.1
2015-Mar-29 22:33N 35°40' E 139°59'4 4.3
2015-Mar-29 21:32N 35°36' E 139°58'0 0.0
2015-Mar-29 19:26N 35°36' E 139°58'0 0.0
2015-Mar-29 18:23N 35°36' E 139°58'0 0.0
2015-Mar-29 17:29N 35°36' E 139°58'0 0.0
2015-Mar-29 16:33N 35°36' E 139°58'7 6.6
2015-Mar-29 15:33N 35°30' E 139°54'1211.9
2015-Mar-29 14:33N 35°21' E 139°45'1111.5
2015-Mar-29 13:33N 35°10' E 139°46'1211.6
2015-Mar-29 12:33N 35°01' E 139°37'233 4.8
2015-Mar-27 12:16N 34°36' E 134°54'710.2
2015-Mar-27 11:33N 34°36' E 135°03'1212.0
2015-Mar-27 10:33N 34°33' E 135°18'6 2.7
2015-Mar-27 08:31N 34°31' E 135°24'0 0.0
2015-Mar-27 07:31N 34°31' E 135°24'0 0.0
2015-Mar-27 06:31N 34°31' E 135°24'0 0.0
2015-Mar-26 21:10N 34°31' E 135°24'0 0.0
2015-Mar-26 17:28N 34°31' E 135°24'0 0.0
2015-Mar-26 16:22N 34°31' E 135°24'0 0.0
2015-Mar-26 15:33N 34°31' E 135°24'7 7.2
2015-Mar-26 14:33N 34°29' E 135°15'2610.9
2015-Mar-26 12:13N 34°07' E 135°00'229 4.6
2015-Mar-24 10:18N 35°02' E 139°30'811.4
2015-Mar-24 09:33N 35°06' E 139°40'1111.1
2015-Mar-24 08:32N 35°16' E 139°46'1111.3
2015-Mar-24 07:33N 35°27' E 139°43'1 1.5
2015-Mar-24 06:32N 35°28' E 139°42'0 0.0
2015-Mar-24 05:29N 35°28' E 139°42'0 0.0
2015-Mar-24 04:32N 35°28' E 139°42'0 0.0
2015-Mar-24 03:29N 35°28' E 139°42'0 0.0
2015-Mar-24 02:23N 35°28' E 139°42'0 0.0
2015-Mar-24 01:23N 35°28' E 139°42'0 0.1
2015-Mar-24 00:32N 35°28' E 139°42'0 0.0
2015-Mar-23 23:32N 35°28' E 139°42'2 2.0
2015-Mar-23 22:32N 35°26' E 139°43'0 0.0
2015-Mar-23 21:29N 35°26' E 139°43'0 0.0
2015-Mar-23 20:32N 35°26' E 139°43'0 0.0
2015-Mar-23 19:32N 35°26' E 139°43'4 4.4
2015-Mar-23 18:33N 35°22' E 139°43'1111.3
2015-Mar-23 17:33N 35°11' E 139°47'1110.7
2015-Mar-23 16:33N 35°03' E 139°39'  

Dump ship's entire track history